Time;durP1;ratioP1;P1;durP2;ratioP2;P2;SDS_P1;SDS_P2;PMS_P1;PMS_P2;Temp;Humidity;BMP_temperature;BMP_pressure;BME280_temperature;BME280_humidity;BME280_pressure;Samples;Min_cycle;Max_cycle;Signal;HPM_P1;HPM_P2
2022/11/13 00:02:26;;;;;;;61.40;28.10;;;;;;;13.02;100.00;101959.43;635727;1320;138728;-82
2022/11/13 00:17:49;;;;;;;60.90;27.90;;;;;;;13.04;100.00;101955.08;637343;1320;138806;-81
2022/11/13 00:33:11;;;;;;;58.50;29.30;;;;;;;13.06;100.00;101955.82;635664;1320;138845;-83
2022/11/13 00:48:43;;;;;;;56.80;28.20;;;;;;;13.00;100.00;101955.86;635412;1320;140023;-81
2022/11/13 01:04:05;;;;;;;65.20;29.20;;;;;;;12.95;100.00;101946.02;635236;1320;138775;-80
2022/11/13 01:19:27;;;;;;;56.90;25.60;;;;;;;13.03;100.00;101944.29;634372;1308;138628;-82
2022/11/13 01:34:49;;;;;;;62.20;30.50;;;;;;;12.96;100.00;101934.91;635970;1319;138920;-80
2022/11/13 01:50:14;;;;;;;55.00;27.50;;;;;;;12.93;100.00;101926.56;635113;1318;138877;-83
2022/11/13 02:05:36;;;;;;;61.50;27.50;;;;;;;12.95;100.00;101926.54;635510;1320;139749;-84
2022/11/13 02:21:15;;;;;;;61.00;30.90;;;;;;;12.99;100.00;101915.38;635767;1317;138970;-80
2022/11/13 02:36:37;;;;;;;62.10;29.70;;;;;;;12.88;100.00;101905.45;635743;1319;138870;-80
2022/11/13 02:51:59;;;;;;;69.30;31.60;;;;;;;12.91;100.00;101903.13;639805;1313;139163;-81
2022/11/13 03:07:22;;;;;;;57.40;27.30;;;;;;;13.01;100.00;101899.77;639549;1313;139120;-80
2022/11/13 03:22:44;;;;;;;57.30;27.20;;;;;;;13.02;100.00;101889.86;639505;1313;139164;-83
2022/11/13 03:38:06;;;;;;;51.20;25.20;;;;;;;13.12;100.00;101895.14;640035;1312;139234;-80
2022/11/13 03:53:28;;;;;;;42.60;22.00;;;;;;;13.13;100.00;101906.50;640003;1308;139119;-81
2022/11/13 04:08:50;;;;;;;43.80;22.30;;;;;;;13.19;100.00;101917.28;640070;1313;138894;-80
2022/11/13 04:24:12;;;;;;;39.50;20.20;;;;;;;13.21;100.00;101914.67;640025;1313;139426;-80
2022/11/13 04:39:34;;;;;;;35.60;20.60;;;;;;;13.21;100.00;101915.56;663023;1303;138665;-79
2022/11/13 04:54:56;;;;;;;31.00;17.60;;;;;;;13.14;100.00;101920.64;661075;1305;138716;-78
2022/11/13 05:10:18;;;;;;;31.90;17.60;;;;;;;13.10;100.00;101917.90;661345;1312;138718;-79
2022/11/13 05:25:40;;;;;;;36.50;19.50;;;;;;;13.09;100.00;101917.98;660788;1312;138773;-78
2022/11/13 05:41:04;;;;;;;28.10;16.70;;;;;;;13.11;100.00;101932.60;660965;1312;138726;-78
2022/11/13 05:56:29;;;;;;;26.90;15.80;;;;;;;13.09;100.00;101941.37;661501;1311;139074;-78
2022/11/13 06:11:52;;;;;;;25.70;14.70;;;;;;;13.07;100.00;101945.75;661569;1312;139073;-78
2022/11/13 06:27:13;;;;;;;21.30;11.90;;;;;;;13.04;100.00;101942.95;661431;1309;138693;-78
2022/11/13 06:42:35;;;;;;;21.60;12.60;;;;;;;13.06;100.00;101944.21;660819;1310;139067;-78
2022/11/13 06:57:57;;;;;;;26.30;14.70;;;;;;;13.04;100.00;101948.60;661398;1312;138793;-78
2022/11/13 07:13:20;;;;;;;25.60;14.10;;;;;;;13.08;100.00;101941.08;660901;1312;138822;-78
2022/11/13 07:28:42;;;;;;;31.80;17.20;;;;;;;13.17;100.00;101941.52;661459;1313;139171;-77
2022/11/13 07:44:04;;;;;;;29.90;17.60;;;;;;;13.13;100.00;101940.52;661233;1313;138934;-78
2022/11/13 07:59:30;;;;;;;56.00;29.00;;;;;;;13.29;100.00;101948.19;661486;1311;138960;-78
2022/11/13 08:14:52;;;;;;;27.30;16.20;;;;;;;13.33;100.00;101950.50;662576;1310;138660;-78
2022/11/13 08:30:15;;;;;;;32.40;16.60;;;;;;;13.33;100.00;101954.25;662358;1309;138784;-79
2022/11/13 08:45:37;;;;;;;42.30;19.60;;;;;;;13.49;100.00;101959.73;662349;1309;139016;-79
2022/11/13 09:01:00;;;;;;;27.20;15.30;;;;;;;13.62;100.00;101958.47;662449;1288;139335;-79
2022/11/13 09:16:23;;;;;;;32.40;18.10;;;;;;;13.58;100.00;101950.33;662377;1305;138892;-79
2022/11/13 09:31:44;;;;;;;38.00;22.20;;;;;;;13.65;100.00;101958.38;662267;1301;139056;-80
2022/11/13 09:47:46;;;;;;;30.30;15.00;;;;;;;13.77;100.00;101959.94;662123;1302;138627;-82
2022/11/13 10:03:37;;;;;;;39.20;20.20;;;;;;;13.98;100.00;101947.70;660859;1308;138643;-79
2022/11/13 10:19:28;;;;;;;46.20;27.20;;;;;;;13.95;100.00;101938.76;661780;1305;138607;-80
2022/11/13 10:35:32;;;;;;;28.00;17.10;;;;;;;13.88;100.00;101932.44;662532;1308;139058;-79
2022/11/13 10:50:59;;;;;;;20.70;10.80;;;;;;;14.09;100.00;101920.98;662082;1309;138752;-80
2022/11/13 11:06:32;;;;;;;26.50;14.90;;;;;;;14.21;100.00;101917.40;662461;1309;138659;-79
2022/11/13 11:22:21;;;;;;;39.80;20.90;;;;;;;14.29;100.00;101914.84;662163;1307;139266;-79
2022/11/13 11:38:10;;;;;;;25.70;14.50;;;;;;;14.31;100.00;101912.73;661896;1305;138787;-79
2022/11/13 11:53:50;;;;;;;33.20;15.80;;;;;;;14.27;100.00;101900.23;661775;1305;181883;-81
2022/11/13 12:09:27;;;;;;;34.00;20.00;;;;;;;14.25;100.00;101887.02;662294;1300;139413;-80
2022/11/13 12:25:21;;;;;;;48.80;26.90;;;;;;;14.26;100.00;101881.46;661990;1308;138789;-80
2022/11/13 12:41:19;;;;;;;44.00;21.30;;;;;;;14.49;100.00;101866.63;662682;1308;139129;-81
2022/11/13 12:56:42;;;;;;;63.20;37.60;;;;;;;14.64;100.00;101852.77;662342;1309;139029;-80
2022/11/13 13:12:16;;;;;;;278.50;102.30;;;;;;;14.52;100.00;101842.46;662142;1307;138714;-80
2022/11/13 13:27:39;;;;;;;87.00;45.30;;;;;;;14.45;100.00;101845.11;662781;1309;138974;-80
2022/11/13 13:43:19;;;;;;;73.80;38.70;;;;;;;14.46;100.00;101842.27;662344;1308;138855;-80
2022/11/13 13:58:42;;;;;;;74.70;39.80;;;;;;;14.48;100.00;101841.71;662312;1307;138722;-80
2022/11/13 14:14:18;;;;;;;56.80;30.70;;;;;;;14.46;100.00;101838.35;662166;1309;142241;-80
2022/11/13 14:29:47;;;;;;;84.20;42.10;;;;;;;14.41;100.00;101832.08;662012;1304;138667;-80
2022/11/13 14:45:13;;;;;;;73.50;37.20;;;;;;;14.29;100.00;101822.10;662537;1305;139085;-79
2022/11/13 15:00:37;;;;;;;108.70;49.30;;;;;;;14.09;100.00;101807.84;662211;1308;138766;-79
2022/11/13 15:15:59;;;;;;;69.60;34.80;;;;;;;14.00;100.00;101791.54;662311;1309;138886;-79
2022/11/13 15:31:29;;;;;;;143.40;66.50;;;;;;;13.85;100.00;101780.15;662377;1306;138942;-80
2022/11/13 15:46:51;;;;;;;146.70;65.40;;;;;;;13.77;100.00;101769.70;662149;1310;139377;-80
2022/11/13 16:02:15;;;;;;;94.30;48.00;;;;;;;13.65;100.00;101748.70;661823;1305;138983;-79
2022/11/13 16:17:40;;;;;;;70.50;35.30;;;;;;;13.43;100.00;101742.98;662384;1308;138744;-80
2022/11/13 16:33:04;;;;;;;63.80;32.00;;;;;;;13.39;100.00;101753.68;662176;1309;138719;-80
2022/11/13 16:48:27;;;;;;;119.80;49.80;;;;;;;13.38;100.00;101752.71;661908;1309;138791;-81
2022/11/13 17:03:50;;;;;;;50.60;34.70;;;;;;;13.35;100.00;101770.69;662174;1309;139216;-80
2022/11/13 17:19:13;;;;;;;122.60;59.30;;;;;;;13.23;100.00;101783.34;662112;1300;138548;-79
2022/11/13 17:34:35;;;;;;;79.10;45.70;;;;;;;13.30;100.00;101776.77;662343;1305;138928;-81
2022/11/13 17:49:58;;;;;;;51.10;22.90;;;;;;;13.31;100.00;101776.19;662651;1295;138964;-81
2022/11/13 18:05:27;;;;;;;44.40;23.90;;;;;;;13.28;100.00;101777.10;662277;1308;138953;-81
2022/11/13 18:20:50;;;;;;;86.60;43.20;;;;;;;13.31;100.00;101782.48;661998;1307;138921;-81
2022/11/13 18:36:13;;;;;;;34.00;19.00;;;;;;;13.34;100.00;101792.46;661699;1309;139581;-81
2022/11/13 18:51:36;;;;;;;43.30;23.20;;;;;;;13.26;100.00;101801.52;662052;1307;138841;-81
2022/11/13 19:06:59;;;;;;;19.50;10.90;;;;;;;13.21;100.00;101795.09;662286;1310;138688;-80
2022/11/13 19:22:22;;;;;;;19.50;11.60;;;;;;;13.19;100.00;101786.05;662908;1306;139470;-80
2022/11/13 19:37:44;;;;;;;44.10;24.20;;;;;;;13.24;100.00;101784.15;662026;1309;138678;-80
2022/11/13 19:53:11;;;;;;;63.80;25.60;;;;;;;13.29;100.00;101777.59;662504;1309;138762;-79
2022/11/13 20:08:34;;;;;;;24.30;13.40;;;;;;;13.23;100.00;101771.52;662077;1309;139263;-79
2022/11/13 20:23:58;;;;;;;16.80;9.70;;;;;;;13.17;100.00;101768.84;662360;1296;139223;-80
2022/11/13 20:39:21;;;;;;;18.00;9.70;;;;;;;13.11;100.00;101768.53;661958;1307;138920;-79
2022/11/13 20:54:43;;;;;;;14.80;8.00;;;;;;;13.08;100.00;101769.71;662010;1309;138525;-79
2022/11/13 21:10:06;;;;;;;18.00;10.40;;;;;;;13.02;100.00;101758.04;662437;1310;138497;-80
2022/11/13 21:25:29;;;;;;;27.50;12.20;;;;;;;13.02;100.00;101748.15;662359;1310;138877;-79
2022/11/13 21:41:20;;;;;;;17.30;9.80;;;;;;;12.95;100.00;101746.71;662140;1310;138772;-79
2022/11/13 21:56:40;;;;;;;10.80;5.90;;;;;;;12.88;100.00;101742.40;662126;1308;138664;-79
2022/11/13 22:12:03;;;;;;;13.90;8.30;;;;;;;12.81;100.00;101732.30;662296;1302;138982;-80
2022/11/13 22:27:25;;;;;;;23.80;11.90;;;;;;;12.76;100.00;101723.77;662527;1308;138568;-79
2022/11/13 22:42:46;;;;;;;20.30;10.60;;;;;;;12.73;100.00;101716.27;662192;1308;138853;-79
2022/11/13 22:58:09;;;;;;;20.20;11.30;;;;;;;12.69;100.00;101710.62;662192;1309;138745;-79
2022/11/13 23:13:32;;;;;;;15.80;9.20;;;;;;;12.56;100.00;101696.45;662402;1309;138693;-79
2022/11/13 23:28:54;;;;;;;19.50;10.90;;;;;;;12.54;100.00;101684.34;662552;1307;138565;-78
2022/11/13 23:44:15;;;;;;;20.80;12.30;;;;;;;12.47;100.00;101677.11;662199;1309;138665;-79
2022/11/13 23:59:38;;;;;;;22.90;11.70;;;;;;;12.46;100.00;101668.02;663942;1300;151349;-79
